Latest Weather Observations for Hogan Island

IDV60801

Issued at 5:32 pm EDT Saturday 10 December 2016 (issued every 30 minutes, with the page automatically refreshed every 10 minutes)

About weather observations | Map of weather stations | Latest weather observations for VIC | Other Formats
Station Details ID: 200838 Name: HOGAN ISLAND Lat: -39.22 Lon: 146.98 Height: 116.0 m
Data from the previous 72 hours. | See also: Recent months at Hogan Island
Date/Time
EDT
Temp
°C
App
Temp
°C
Dew
Point
°C
Rel
Hum
%
Delta-T
°C
Wind Press
QNH
hPa
Press
MSL
hPa
Rain since
9am
mm
Dir  Spd
km/h
Gust
km/h
Spd
kts
Gust
kts
10/05:30pm 14.0 5.9 10.8 81 1.7 W 44 56 24 30 1020.4 - 0.0
10/05:00pm 15.8 7.2 11.8 77 2.2 W 48 57 26 31 1020.7 - 0.0
10/04:30pm 15.1 6.1 11.5 79 1.9 W 50 57 27 31 1020.7 - 0.0
10/04:00pm 15.4 6.3 11.2 76 2.3 W 50 57 27 31 1020.8 - 0.0
10/03:30pm 14.8 6.0 11.0 78 2.0 W 48 56 26 30 1021.0 - 0.0
10/03:00pm 13.6 4.9 11.3 86 1.2 W 48 56 26 30 1021.4 1021.2 0.0
10/02:30pm 14.5 5.6 10.5 77 2.1 W 48 54 26 29 1021.5 - 0.0
10/02:00pm 15.3 6.4 9.2 67 3.2 W 46 52 25 28 1021.7 - 0.0
10/01:30pm 16.5 8.1 9.7 64 3.6 W 44 50 24 27 1021.8 - 0.0
10/01:00pm 15.8 7.3 9.2 65 3.4 W 44 48 24 26 1021.9 - 0.0
10/12:30pm 15.3 7.0 9.4 68 3.1 W 43 48 23 26 1021.9 - 0.0
10/12:00pm 15.1 7.1 10.5 74 2.4 W 43 46 23 25 1022.0 1021.8 0.0
10/11:30am 14.5 7.3 10.5 77 2.1 W 39 46 21 25 1022.1 - 0.0
10/11:00am 15.9 9.2 11.1 73 2.6 W 37 46 20 25 1022.2 - 0.0
10/10:30am 16.0 9.2 10.7 71 2.8 W 37 43 20 23 1022.2 - 0.0
10/10:00am 14.0 6.1 9.4 74 2.4 W 41 44 22 24 1022.1 - 0.0
10/09:30am 13.6 5.4 9.6 77 2.1 W 43 48 23 26 1022.2 - 0.0
10/09:00am 13.9 6.0 9.5 75 2.3 W 41 46 22 25 1022.0 1021.8 0.2
10/08:30am 13.5 5.4 8.8 73 2.4 W 41 46 22 25 1021.7 - 0.2
10/08:00am 13.1 5.2 9.5 79 1.8 W 41 46 22 25 1021.4 - 0.2
10/07:30am 12.5 5.1 9.7 83 1.4 WSW 39 44 21 24 1021.0 - 0.2
10/07:00am 12.4 5.0 10.0 85 1.2 W 39 48 21 26 1020.6 - 0.2
10/06:30am 12.2 4.4 9.6 84 1.3 WSW 41 46 22 25 1020.1 - 0.2
10/06:00am 12.1 3.6 8.4 78 1.8 WSW 43 50 23 27 1019.9 1019.7 0.2
10/05:30am 11.8 3.2 9.0 83 1.4 WSW 44 52 24 28 1019.5 - 0.2
10/05:00am 11.9 3.9 10.3 90 0.8 WSW 43 48 23 26 1019.3 - 0.2
10/04:30am 11.7 3.8 10.9 95 0.4 WSW 43 48 23 26 1019.2 - 0.2
10/04:00am 11.8 3.9 10.7 93 0.6 WSW 43 50 23 27 1018.8 - 0.2
10/03:30am 11.6 3.6 10.3 92 0.7 WSW 43 48 23 26 1018.9 - 0.2
10/03:00am 11.7 3.9 9.6 87 1.1 WSW 41 50 22 27 1019.2 1019.1 0.2
10/02:30am 11.8 2.0 8.8 82 1.5 WSW 50 56 27 30 1018.9 - 0.2
10/02:00am 11.9 2.9 8.7 81 1.6 WSW 46 56 25 30 1018.9 - 0.2
10/01:30am 11.7 1.7 9.3 85 1.2 WSW 52 61 28 33 1018.7 - 0.2
10/01:00am 12.0 2.0 9.2 83 1.4 WSW 52 63 28 34 1019.1 - 0.2
10/12:30am 11.9 1.0 8.9 82 1.5 WSW 56 65 30 35 1019.0 - 0.2
10/12:00am 12.1 1.1 9.3 83 1.4 WSW 57 69 31 37 1018.9 1018.8 0.2
 
Date/Time
EDT
Temp
°C
App
Temp
°C
Dew
Point
°C
Rel
Hum
%
Delta-T
°C
Wind Press
QNH
hPa
Press
MSL
hPa
Rain since
9am
mm
Dir  Spd
km/h
Gust
km/h
Spd
kts
Gust
kts
09/11:30pm 11.9 -1.1 7.2 73 2.3 WSW 65 74 35 40 1018.8 - 0.2
09/11:00pm 12.0 0.8 8.3 78 1.8 WSW 57 69 31 37 1019.1 - 0.2
09/10:30pm 11.8 0.5 8.1 78 1.8 WSW 57 69 31 37 1019.0 - 0.2
09/10:00pm 12.0 1.3 9.6 85 1.2 WSW 56 67 30 36 1018.7 - 0.2
09/09:30pm 11.7 -1.2 9.1 84 1.3 WSW 67 76 36 41 1017.9 - 0.2
09/09:00pm 11.7 -0.9 8.7 82 1.5 WSW 65 74 35 40 1017.9 1017.8 0.2
09/08:30pm 12.0 -0.3 8.5 79 1.7 WSW 63 74 34 40 1017.4 - 0.2
09/08:00pm 12.2 -1.6 9.4 83 1.4 WSW 72 83 39 45 1016.5 - 0.2
09/07:30pm 12.5 -1.1 8.6 77 2.0 WSW 70 83 38 45 1016.4 - 0.2
09/07:00pm 13.0 -1.0 8.7 75 2.2 WSW 72 85 39 46 1016.0 - 0.2
09/06:30pm 12.8 -1.3 8.3 74 2.2 WSW 72 85 39 46 1015.3 - 0.2
09/06:17pm 13.1 -0.5 7.8 70 2.6 WSW 69 87 37 47 1015.0 - 0.2
09/06:00pm 12.9 -1.7 7.8 71 2.5 WSW 74 85 40 46 1014.9 1014.7 0.2
09/05:30pm 13.7 -0.7 8.3 70 2.7 W 74 83 40 45 1014.5 - 0.2
09/05:00pm 12.8 -2.4 8.5 75 2.2 W 78 91 42 49 1013.9 - 0.2
09/04:30pm 14.1 0.0 8.1 67 3.0 W 72 85 39 46 1014.1 - 0.2
09/04:00pm 14.3 -0.9 8.5 68 2.9 WSW 78 93 42 50 1013.8 - 0.2
09/03:30pm 14.2 0.1 8.2 67 3.0 WSW 72 87 39 47 1013.7 - 0.2
09/03:00pm 14.2 -1.2 7.7 65 3.2 WSW 78 89 42 48 1013.5 1013.3 0.2
09/02:30pm 14.4 -0.2 7.7 64 3.3 W 74 87 40 47 1013.1 - 0.2
09/02:00pm 14.4 -0.1 8.1 66 3.2 WSW 74 85 40 46 1012.9 - 0.2
09/01:30pm 14.8 0.8 8.7 67 3.1 W 72 83 39 45 1012.8 - 0.2
09/01:00pm 14.5 -0.1 7.5 63 3.5 WSW 74 83 40 45 1012.4 - 0.2
09/12:30pm 14.3 0.8 8.3 67 3.0 WSW 69 80 37 43 1012.2 - 0.2
09/12:00pm 13.0 0.9 7.9 71 2.5 WSW 61 78 33 42 1012.1 1011.9 0.2
09/11:30am 13.6 0.4 8.0 69 2.8 WSW 67 82 36 44 1011.9 - 0.2
09/11:20am 13.7 -0.1 7.7 67 3.0 WSW 70 89 38 48 1011.4 - 0.2
09/11:00am 13.4 -0.2 8.0 70 2.7 WSW 69 80 37 43 1011.1 - 0.2
09/10:30am 13.1 -0.6 8.4 73 2.4 WSW 70 82 38 44 1010.5 - 0.2
09/10:00am 12.6 -1.9 8.1 74 2.2 WSW 74 83 40 45 1010.2 - 0.0
09/09:30am 12.4 -1.4 7.7 73 2.3 WSW 70 82 38 44 1009.9 - 0.0
09/09:00am 12.2 -2.0 7.7 74 2.2 WSW 72 85 39 46 1009.2 1009.0 8.8
09/08:30am 11.9 -2.0 7.4 74 2.2 WSW 70 80 38 43 1008.7 - 8.8
09/08:00am 11.6 -1.1 8.5 81 1.5 WSW 65 82 35 44 1008.1 - 8.8
09/07:51am 11.4 -2.3 8.1 80 1.6 WSW 70 89 38 48 1007.9 - 8.8
09/07:30am 11.1 -2.9 8.5 84 1.3 WSW 72 87 39 47 1007.3 - 8.8
09/07:20am 11.1 -2.6 8.3 83 1.4 WSW 70 89 38 48 1006.9 - 8.8
09/07:00am 10.8 -3.2 8.4 85 1.2 SW 72 89 39 48 1006.5 - 8.8
09/06:41am 10.6 -2.1 10.0 96 0.3 SW 67 85 36 46 1006.3 - 8.8
09/06:30am 10.3 -3.5 9.4 94 0.5 SW 72 83 39 45 1005.9 - 8.8
09/06:00am 9.1 -5.9 9.0 99 0.0 WSW 78 106 42 57 1005.0 1004.8 8.8
09/05:44am 10.4 -4.1 9.6 95 0.4 WSW 76 95 41 51 1004.7 - 8.6
09/05:30am 10.9 -4.2 10.3 96 0.3 WSW 80 93 43 50 1004.4 - 8.6
09/05:00am 10.3 -3.6 10.3 100 0.0 WSW 74 91 40 49 1004.0 - 8.6
09/04:30am 10.4 -2.8 10.2 99 0.1 WSW 70 89 38 48 1003.2 - 8.6
09/04:04am 10.7 -3.9 10.5 99 0.1 SW 78 96 42 52 1003.1 - 8.6
09/04:00am 10.6 -4.8 10.4 99 0.1 WSW 82 96 44 52 1003.0 - 8.4
09/03:30am 11.0 -4.3 10.8 99 0.1 WSW 82 102 44 55 1002.5 - 8.4
09/03:09am 11.0 -3.2 10.8 99 0.1 WSW 76 96 41 52 1002.1 - 8.4
09/03:00am 11.5 -3.2 10.4 93 0.6 WSW 78 95 42 51 1002.0 1001.7 8.4
09/02:30am 12.2 -3.2 10.6 90 0.8 WSW 82 95 44 51 1001.7 - 8.4
09/02:00am 12.2 -3.0 9.9 86 1.2 WSW 80 93 43 50 1001.5 - 8.4
09/01:30am 12.3 -3.4 10.2 87 1.1 W 83 96 45 52 1001.0 - 8.4
09/01:00am 12.4 -3.7 11.3 93 0.6 W 87 104 47 56 1000.8 - 8.4
09/12:48am 12.3 -3.4 11.4 94 0.5 W 85 106 46 57 1000.4 - 8.4
09/12:30am 12.7 -2.1 12.5 99 0.1 W 82 98 44 53 1000.5 - 8.4
09/12:00am 12.4 -3.4 12.2 99 0.1 W 87 100 47 54 999.9 999.7 8.4
 
Date/Time
EDT
Temp
°C
App
Temp
°C
Dew
Point
°C
Rel
Hum
%
Delta-T
°C
Wind Press
QNH
hPa
Press
MSL
hPa
Rain since
9am
mm
Dir  Spd
km/h
Gust
km/h
Spd
kts
Gust
kts
08/11:30pm 12.5 -4.0 12.5 100 0.0 W 91 107 49 58 999.5 - 8.4
08/11:05pm 12.1 -2.4 12.1 100 0.0 W 80 98 43 53 999.8 - 8.4
08/11:00pm 11.8 - 12.0 - - W 82 96 44 52 999.8 - 8.4
08/10:30pm 12.6 -4.6 12.6 100 0.0 W 95 107 51 58 998.8 - 8.4
08/10:00pm 12.8 -4.0 12.8 100 0.0 W 93 113 50 61 998.2 - 8.4
08/09:30pm 12.9 -3.9 12.9 100 0.0 W 93 111 50 60 997.7 - 8.4
08/09:05pm 12.7 -1.7 12.7 100 0.0 W 80 100 43 54 997.6 - 8.4
08/09:00pm 12.9 - 13.1 - - W 78 95 42 51 997.8 997.6 8.4
08/08:40pm 13.0 - 13.2 - - W 83 104 45 56 997.2 - 8.4
08/08:30pm 13.4 - 13.6 - - W 87 102 47 55 997.2 - 8.4
08/08:16pm 12.8 - 13.0 - - W 78 98 42 53 996.8 - 8.4
08/08:00pm 12.8 -2.1 12.8 100 0.0 W 83 95 45 51 996.6 - 8.4
08/07:30pm 14.3 -1.3 14.1 99 0.1 W 89 104 48 56 995.4 - 8.2
08/07:23pm 14.4 -0.4 14.2 99 0.1 W 85 104 46 56 995.3 - 8.2
08/07:00pm 14.6 -0.6 14.3 98 0.2 W 87 104 47 56 995.1 - 8.2
08/06:33pm 14.8 -0.4 14.2 96 0.3 W 87 106 47 57 995.0 - 8.2
08/06:30pm 15.0 -0.5 14.4 96 0.3 W 89 106 48 57 995.0 - 8.2
08/06:00pm 15.3 -0.4 13.7 90 0.9 W 89 109 48 59 994.2 993.9 8.2
08/05:30pm 15.6 0.1 13.4 87 1.2 W 87 107 47 58 994.2 - 8.0
08/05:02pm 15.8 1.8 13.8 88 1.1 W 80 98 43 53 994.6 - 8.0
08/05:00pm 16.2 3.0 14.9 92 0.8 W 78 91 42 49 994.9 - 8.0
08/04:32pm 16.0 4.2 14.7 92 0.7 W 70 91 38 49 994.7 - 8.0
08/04:30pm 16.2 4.8 15.2 94 0.6 W 69 85 37 46 994.8 - 8.0
08/04:06pm 17.0 6.7 15.2 89 1.1 W 63 83 34 45 994.5 - 8.0
08/04:00pm 17.1 8.5 16.5 96 0.4 W 57 69 31 37 995.0 - 8.0
08/03:54pm 16.9 8.5 16.7 99 0.1 W 56 63 30 34 995.1 - 8.0
08/03:30pm 16.5 - 16.7 - - WNW 33 43 18 23 995.6 - 8.0
08/03:00pm 15.0 - 15.3 - - WNW 35 44 19 24 996.1 995.9 8.0
08/02:30pm 14.0 - 14.5 - - W 50 59 27 32 995.4 - 8.0
08/02:00pm 13.8 - 14.3 - - W 46 54 25 29 995.2 - 7.8
08/01:30pm 13.9 - 14.4 - - W 52 57 28 31 995.5 - 7.8
08/01:02pm 14.3 - 14.8 - - W 50 74 27 40 994.7 - 7.6
08/01:00pm 15.6 - 16.1 - - W 41 48 22 26 995.0 - 7.6
08/12:57pm 15.8 - 16.3 - - NW 39 48 21 26 994.7 - 7.6
08/12:30pm 15.9 - 16.4 - - N 32 41 17 22 994.7 - 7.6
08/12:00pm 15.0 - 15.5 - - N 33 43 18 23 995.3 995.0 7.4
08/11:30am 14.7 - 15.2 - - NNE 30 37 16 20 995.9 - 5.8
08/11:00am 15.3 - 15.6 - - NE 22 24 12 13 996.0 - 5.2
08/10:30am 16.0 13.4 16.0 100 0.0 N 24 35 13 19 996.6 - 3.4
08/10:00am 16.5 13.4 16.5 100 0.0 N 28 39 15 21 998.0 - 1.6
08/09:30am 15.8 - 16.0 - - NE 24 32 13 17 997.6 - 0.2
08/09:00am 15.1 - 15.4 - - NE 22 32 12 17 997.7 997.5 1.8
08/08:30am 15.0 - 15.3 - - NNE 24 30 13 16 998.5 - 1.6
08/08:00am 15.0 - 15.5 - - NNE 30 33 16 18 999.4 - 0.8
08/07:30am 15.2 - 15.7 - - NNE 32 46 17 25 1000.1 - 0.8
08/07:10am 15.1 - 15.6 - - NNE 28 46 15 25 1000.2 - 0.6
08/07:00am 14.8 - 15.3 - - NNE 28 41 15 22 1000.3 - 0.4
08/06:30am 14.7 - 15.2 - - NNE 35 43 19 23 999.6 - 0.0
08/06:00am 14.8 - 15.3 - - NE 41 50 22 27 998.8 998.6 0.0
08/05:30am 14.7 - 15.3 - - NE 43 48 23 26 998.9 - 0.0
08/05:00am 14.6 - 15.2 - - NE 44 50 24 27 999.5 - 0.0
08/04:30am 14.6 - 15.2 - - NE 41 50 22 27 1000.4 - 0.0
08/04:00am 14.6 - 15.1 - - NE 41 48 22 26 1001.1 - 0.0
08/03:30am 14.6 - 15.1 - - NE 46 54 25 29 1001.7 - 0.0
08/03:00am 14.3 - 14.8 - - NE 41 48 22 26 1002.8 1002.5 0.0
08/02:30am 14.2 - 14.5 - - NE 44 50 24 27 1003.6 - 0.0
08/02:00am 13.9 - 14.2 - - NE 41 46 22 25 1004.4 - 0.0
08/01:30am 13.9 - 14.2 - - NE 41 46 22 25 1005.5 - 0.0
08/01:00am 13.8 - 14.0 - - NE 39 44 21 24 1006.5 - 0.0
08/12:30am 13.6 - 13.8 - - NE 37 41 20 22 1007.0 - 0.0
08/12:00am 13.7 - 13.9 - - NE 41 48 22 26 1007.7 1007.5 0.0
 
Date/Time
EDT
Temp
°C
App
Temp
°C
Dew
Point
°C
Rel
Hum
%
Delta-T
°C
Wind Press
QNH
hPa
Press
MSL
hPa
Rain since
9am
mm
Dir  Spd
km/h
Gust
km/h
Spd
kts
Gust
kts
07/11:30pm 13.7 6.5 13.7 100 0.0 NE 44 50 24 27 1008.6 - 0.0
07/11:00pm 13.6 7.0 13.6 100 0.0 NE 41 46 22 25 1009.2 - 0.0
07/10:30pm 13.6 6.9 13.4 99 0.1 NE 41 46 22 25 1009.8 - 0.0
07/10:00pm 13.2 7.9 13.0 99 0.1 NE 33 43 18 23 1010.1 - 0.0
07/09:30pm 13.3 7.1 12.8 97 0.3 NE 37 41 20 22 1010.2 - 0.0
07/09:00pm 13.1 7.7 12.9 99 0.1 ENE 33 37 18 20 1010.4 1010.3 0.0
07/08:30pm 13.2 8.8 13.0 99 0.1 ENE 28 32 15 17 1011.0 - 0.0
07/08:00pm 13.6 9.1 12.5 93 0.6 ENE 28 32 15 17 1011.1 - 0.0
07/07:30pm 14.2 10.7 12.2 88 1.1 E 22 24 12 13 1011.4 - 0.0
07/07:00pm 15.0 12.4 12.0 82 1.6 E 17 19 9 10 1011.7 - 0.0
07/06:30pm 15.6 13.4 12.2 80 1.9 E 15 17 8 9 1012.0 - 0.0
07/06:00pm 15.9 13.8 12.3 79 2.0 SE 15 19 8 10 1012.1 1011.9 0.0

Other Formats:

Comma delimited format used in spreadsheet applications
http://www.bom.gov.au/fwo/IDV60801/IDV60801.94949.axf

JavaScript Object Notation format (JSON) in row-major order
http://www.bom.gov.au/fwo/IDV60801/IDV60801.94949.json